createdAt,value
2023-03-24T00:02:16.602Z,13.31
2023-03-24T00:04:47.326Z,13.33
2023-03-24T00:07:16.207Z,13.35
2023-03-24T00:09:46.337Z,13.37
2023-03-24T00:12:14.613Z,13.39
2023-03-24T00:14:48.328Z,13.40
2023-03-24T00:17:17.699Z,13.41
2023-03-24T00:19:46.509Z,13.41
2023-03-24T00:23:33.150Z,13.41
2023-03-24T00:26:38.527Z,13.42
2023-03-24T00:29:11.084Z,13.41
2023-03-24T00:31:40.564Z,13.42
2023-03-24T00:34:09.241Z,13.43
2023-03-24T00:36:39.664Z,13.43
2023-03-24T00:39:08.589Z,13.42
2023-03-24T00:41:47.905Z,13.42
2023-03-24T00:45:13.207Z,13.42
2023-03-24T00:48:20.498Z,13.42
2023-03-24T00:50:49.410Z,13.41
2023-03-24T00:53:18.183Z,13.41
2023-03-24T00:55:50.312Z,13.41
2023-03-24T00:59:15.331Z,13.39
2023-03-24T01:02:02.985Z,13.37
2023-03-24T01:04:31.912Z,13.35
2023-03-24T01:07:00.253Z,13.35
2023-03-24T01:09:28.839Z,13.34
2023-03-24T01:11:58.872Z,13.33
2023-03-24T01:14:27.646Z,13.33
2023-03-24T01:18:13.648Z,13.34
2023-03-24T01:21:18.464Z,13.32
2023-03-24T01:23:47.108Z,13.31
2023-03-24T01:26:16.256Z,13.30
2023-03-24T01:28:44.448Z,13.29
2023-03-24T01:31:13.002Z,13.27
2023-03-24T01:33:41.291Z,13.25
2023-03-24T01:36:10.474Z,13.24
2023-03-24T01:38:38.827Z,13.23
2023-03-24T01:41:07.702Z,13.21
2023-03-24T01:43:36.655Z,13.19
2023-03-24T01:46:18.891Z,13.18
2023-03-24T01:49:08.138Z,13.16
2023-03-24T01:51:40.893Z,13.16
2023-03-24T01:54:17.168Z,13.15
2023-03-24T01:56:49.437Z,13.15
2023-03-24T01:59:21.000Z,13.15
2023-03-24T02:02:04.238Z,13.15
2023-03-24T02:04:44.958Z,13.14
2023-03-24T02:07:48.274Z,13.12
2023-03-24T02:10:18.230Z,13.12
2023-03-24T02:12:46.734Z,13.11
2023-03-24T02:15:17.654Z,13.09
2023-03-24T02:17:54.790Z,13.08
2023-03-24T02:20:39.385Z,13.06
2023-03-24T02:23:41.655Z,13.02
2023-03-24T02:26:29.496Z,12.98
2023-03-24T02:29:06.674Z,12.95
2023-03-24T02:32:00.492Z,12.92
2023-03-24T02:34:30.698Z,12.90
2023-03-24T02:37:18.895Z,12.88
2023-03-24T02:40:08.921Z,12.87
2023-03-24T02:42:57.256Z,12.84
2023-03-24T02:45:32.705Z,12.82
2023-03-24T02:48:09.221Z,12.80
2023-03-24T02:51:05.108Z,12.79
2023-03-24T02:53:56.111Z,12.77
2023-03-24T02:56:58.688Z,12.74
2023-03-24T02:59:49.585Z,12.74
2023-03-24T03:02:47.275Z,12.72
2023-03-24T03:05:22.698Z,12.71
2023-03-24T03:07:51.689Z,12.71
2023-03-24T03:10:29.961Z,12.71
2023-03-24T03:13:02.786Z,12.71
2023-03-24T03:15:43.413Z,12.71
2023-03-24T03:18:16.644Z,12.71
2023-03-24T03:20:54.922Z,12.69
2023-03-24T03:23:31.538Z,12.69
2023-03-24T03:26:06.201Z,12.68
2023-03-24T03:28:38.222Z,12.69
2023-03-24T03:31:08.538Z,12.66
2023-03-24T03:34:06.441Z,12.64
2023-03-24T03:36:38.606Z,12.63
2023-03-24T03:39:16.286Z,12.60
2023-03-24T03:41:45.694Z,12.59
2023-03-24T03:44:14.385Z,12.58
2023-03-24T03:46:43.195Z,12.56
2023-03-24T03:49:13.287Z,12.56
2023-03-24T03:51:47.914Z,12.59
2023-03-24T03:54:17.881Z,12.60
2023-03-24T03:56:48.622Z,12.59
2023-03-24T03:59:25.653Z,12.57
2023-03-24T04:01:54.662Z,12.56
2023-03-24T04:06:18.012Z,12.41
2023-03-24T04:08:48.247Z,12.55
2023-03-24T04:11:30.129Z,12.56
2023-03-24T04:14:31.994Z,12.57
2023-03-24T04:17:32.857Z,12.56
2023-03-24T04:20:24.561Z,12.54
2023-03-24T04:22:54.317Z,12.55
2023-03-24T04:25:42.472Z,12.56
2023-03-24T04:28:20.425Z,12.54
2023-03-24T04:30:52.593Z,12.55
2023-03-24T04:33:30.704Z,12.55
2023-03-24T04:36:18.376Z,12.55
2023-03-24T04:39:06.775Z,12.56
2023-03-24T04:41:44.219Z,12.56
2023-03-24T04:44:22.193Z,12.58
2023-03-24T04:47:09.187Z,12.60
2023-03-24T04:49:40.034Z,12.61
2023-03-24T04:52:09.529Z,12.63
2023-03-24T04:54:38.707Z,12.65
2023-03-24T04:57:07.896Z,12.66
2023-03-24T04:59:46.356Z,12.67
2023-03-24T05:02:15.857Z,12.69
2023-03-24T05:04:51.274Z,12.67
2023-03-24T05:07:27.450Z,12.66
2023-03-24T05:10:00.661Z,12.69
2023-03-24T05:12:38.389Z,12.70
2023-03-24T05:15:18.598Z,12.70
2023-03-24T05:17:48.325Z,12.72
2023-03-24T05:20:20.997Z,12.73
2023-03-24T05:22:50.905Z,12.75
2023-03-24T05:25:20.213Z,12.78
2023-03-24T05:27:49.285Z,12.80
2023-03-24T05:30:21.705Z,12.82
2023-03-24T05:32:52.387Z,12.86
2023-03-24T05:35:20.757Z,12.89
2023-03-24T05:37:49.928Z,12.93
2023-03-24T05:40:18.532Z,12.97
2023-03-24T05:42:54.019Z,13.02
2023-03-24T05:45:30.502Z,13.10
2023-03-24T05:47:59.693Z,13.16
2023-03-24T05:50:38.307Z,13.22
2023-03-24T05:53:07.295Z,13.28
2023-03-24T05:55:58.929Z,13.28
2023-03-24T05:58:51.672Z,13.29
2023-03-24T06:01:20.259Z,13.31
2023-03-24T06:03:49.844Z,13.36
2023-03-24T06:06:18.857Z,13.45
2023-03-24T06:08:54.639Z,13.51
2023-03-24T06:11:25.039Z,13.56
2023-03-24T06:14:00.689Z,13.60
2023-03-24T06:16:39.243Z,13.65
2023-03-24T06:19:08.407Z,13.69
2023-03-24T06:21:55.026Z,13.72
2023-03-24T06:24:29.744Z,13.78
2023-03-24T06:27:03.669Z,13.85
2023-03-24T06:29:34.137Z,13.92
2023-03-24T06:32:02.556Z,14.02
2023-03-24T06:34:32.479Z,14.12
2023-03-24T06:37:17.246Z,14.21
2023-03-24T06:39:45.985Z,14.26
2023-03-24T06:42:14.868Z,14.32
2023-03-24T06:44:43.502Z,14.40
2023-03-24T06:47:12.100Z,14.47
2023-03-24T06:49:42.277Z,14.54
2023-03-24T06:52:10.403Z,14.60
2023-03-24T06:54:45.008Z,14.66
2023-03-24T06:57:14.649Z,14.72
2023-03-24T07:00:10.518Z,14.75
2023-03-24T07:02:50.129Z,14.76
2023-03-24T07:05:19.231Z,14.75
2023-03-24T07:10:41.318Z,14.68
2023-03-24T07:13:09.971Z,14.66
2023-03-24T07:15:38.560Z,14.62
2023-03-24T07:18:10.169Z,14.60
2023-03-24T07:20:54.102Z,14.57
2023-03-24T07:23:28.229Z,14.57
2023-03-24T07:26:05.174Z,14.56
2023-03-24T07:28:48.629Z,14.59
2023-03-24T07:31:27.181Z,14.64
2023-03-24T07:34:01.997Z,14.67
2023-03-24T07:36:30.809Z,14.67
2023-03-24T07:38:59.449Z,14.67
2023-03-24T07:41:33.054Z,14.70
2023-03-24T07:44:04.195Z,14.74
2023-03-24T07:46:42.613Z,14.78
2023-03-24T07:49:19.298Z,14.82
2023-03-24T07:52:00.259Z,14.86
2023-03-24T07:54:38.363Z,14.89
2023-03-24T07:57:08.656Z,14.95
2023-03-24T07:59:40.499Z,14.99
2023-03-24T08:02:19.809Z,14.99
2023-03-24T08:04:56.856Z,15.02
2023-03-24T08:07:42.918Z,15.05
2023-03-24T08:10:13.497Z,15.12
2023-03-24T08:12:45.597Z,15.21
2023-03-24T08:15:14.671Z,15.29
2023-03-24T08:17:43.390Z,15.35
2023-03-24T08:20:21.495Z,15.44
2023-03-24T08:22:50.261Z,15.50
2023-03-24T08:25:19.344Z,15.54
2023-03-24T08:27:51.092Z,15.57
2023-03-24T08:30:21.162Z,15.60
2023-03-24T08:32:54.214Z,15.65
2023-03-24T08:35:25.271Z,15.68
2023-03-24T08:37:53.628Z,15.72
2023-03-24T08:40:24.460Z,15.76
2023-03-24T08:43:00.352Z,15.79
2023-03-24T08:45:30.719Z,15.84
2023-03-24T08:48:01.486Z,15.87
2023-03-24T08:50:34.617Z,15.90
2023-03-24T08:53:04.288Z,15.95
2023-03-24T08:55:33.265Z,16.00
2023-03-24T08:58:01.853Z,16.07
2023-03-24T09:00:30.482Z,16.09
2023-03-24T09:03:07.774Z,16.11
2023-03-24T09:05:44.402Z,16.15
2023-03-24T09:08:23.526Z,16.18
2023-03-24T09:10:51.911Z,16.22
2023-03-24T09:13:21.110Z,16.27
2023-03-24T09:15:52.370Z,16.35
2023-03-24T09:18:20.932Z,16.41
2023-03-24T09:20:50.263Z,16.47
2023-03-24T09:23:19.702Z,16.51
2023-03-24T09:25:50.737Z,16.56
2023-03-24T09:28:24.383Z,16.64
2023-03-24T09:30:59.630Z,16.73
2023-03-24T09:33:29.722Z,16.83
2023-03-24T09:36:00.065Z,16.95
2023-03-24T09:38:30.824Z,17.10
2023-03-24T09:41:04.301Z,17.25
2023-03-24T09:43:40.972Z,17.34
2023-03-24T09:48:37.018Z,17.60
2023-03-24T09:51:13.608Z,17.72
2023-03-24T09:54:00.675Z,17.85
2023-03-24T09:56:30.046Z,18.00
2023-03-24T09:59:01.207Z,18.14
2023-03-24T10:01:29.740Z,18.29
2023-03-24T10:03:59.155Z,18.38
2023-03-24T10:06:38.656Z,18.45
2023-03-24T10:09:27.884Z,18.49
2023-03-24T10:12:04.931Z,18.55
2023-03-24T10:14:44.910Z,18.62
2023-03-24T10:17:36.599Z,18.74
2023-03-24T10:20:24.449Z,18.90
2023-03-24T10:23:11.161Z,19.03
2023-03-24T10:25:54.897Z,19.09
2023-03-24T10:28:26.247Z,19.19
2023-03-24T10:30:55.962Z,19.31
2023-03-24T10:33:24.146Z,19.41
2023-03-24T10:42:48.977Z,19.75
2023-03-24T10:45:25.144Z,19.95
2023-03-24T10:47:54.830Z,20.08
2023-03-24T10:50:27.337Z,20.18
2023-03-24T10:52:55.965Z,20.27
2023-03-24T10:55:32.486Z,20.30
2023-03-24T10:58:00.686Z,20.32
2023-03-24T11:00:31.801Z,20.39
2023-03-24T11:03:08.537Z,20.47
2023-03-24T11:05:38.449Z,20.55
2023-03-24T11:08:15.166Z,20.66
2023-03-24T11:10:45.305Z,20.76
2023-03-24T11:13:23.511Z,20.85
2023-03-24T11:16:17.204Z,20.88
2023-03-24T11:19:04.495Z,20.97
2023-03-24T11:21:35.513Z,21.04
2023-03-24T11:24:09.616Z,21.04
2023-03-24T11:26:39.061Z,21.04
2023-03-24T11:29:30.580Z,21.01
2023-03-24T11:32:03.498Z,21.01
2023-03-24T11:34:34.569Z,21.02
2023-03-24T11:37:04.059Z,21.07
2023-03-24T11:39:34.303Z,21.15
2023-03-24T11:42:02.450Z,21.24
2023-03-24T11:44:45.173Z,21.29
2023-03-24T11:47:31.143Z,21.33
2023-03-24T11:50:11.493Z,21.33
2023-03-24T11:52:48.166Z,21.32
2023-03-24T11:55:18.108Z,21.33
2023-03-24T11:57:58.209Z,21.39
2023-03-24T12:00:36.126Z,21.48
2023-03-24T12:03:26.630Z,21.61
2023-03-24T12:06:28.318Z,21.78
2023-03-24T12:08:59.348Z,21.97
2023-03-24T12:11:55.031Z,22.12
2023-03-24T12:14:35.062Z,22.29
2023-03-24T12:17:14.717Z,22.46
2023-03-24T12:19:52.313Z,22.57
2023-03-24T12:22:56.005Z,22.70
2023-03-24T12:25:46.088Z,22.82
2023-03-24T12:28:23.724Z,22.82
2023-03-24T12:31:19.596Z,22.78
2023-03-24T12:34:25.369Z,22.76
2023-03-24T12:37:07.936Z,22.80
2023-03-24T12:39:45.619Z,22.74
2023-03-24T12:42:14.597Z,22.66
2023-03-24T12:44:48.370Z,22.58
2023-03-24T12:47:19.674Z,22.51
2023-03-24T12:49:54.474Z,22.33
2023-03-24T12:52:38.851Z,22.21
2023-03-24T12:55:14.390Z,22.08
2023-03-24T12:57:48.840Z,22.00
2023-03-24T13:00:23.365Z,21.98
2023-03-24T13:02:53.293Z,21.97
2023-03-24T13:05:24.390Z,21.99
2023-03-24T13:07:54.721Z,22.04
2023-03-24T13:10:26.031Z,22.08
2023-03-24T13:13:00.860Z,22.14
2023-03-24T13:15:34.983Z,22.16
2023-03-24T13:18:09.708Z,22.21
2023-03-24T13:20:51.055Z,22.42
2023-03-24T13:23:28.448Z,22.63
2023-03-24T13:25:56.611Z,22.77
2023-03-24T13:28:35.702Z,22.93
2023-03-24T13:31:03.828Z,23.20
2023-03-24T13:33:32.421Z,23.35
2023-03-24T13:36:45.233Z,23.64
2023-03-24T13:39:20.524Z,24.52
2023-03-24T13:41:56.333Z,25.31
2023-03-24T13:44:26.415Z,25.73
2023-03-24T13:47:10.158Z,26.10
2023-03-24T13:49:40.812Z,26.37
2023-03-24T13:52:46.039Z,26.62
2023-03-24T13:55:18.710Z,26.34
2023-03-24T13:58:01.778Z,25.67
2023-03-24T14:00:34.127Z,24.95
2023-03-24T14:03:06.149Z,24.37
2023-03-24T14:05:42.166Z,23.93
2023-03-24T14:08:11.627Z,23.59
2023-03-24T14:10:42.977Z,23.34
2023-03-24T14:13:14.105Z,23.16
2023-03-24T14:15:54.237Z,22.99
2023-03-24T14:18:26.097Z,22.82
2023-03-24T14:20:58.474Z,22.67
2023-03-24T14:23:38.773Z,22.53
2023-03-24T14:26:19.762Z,22.36
2023-03-24T14:28:48.870Z,22.20
2023-03-24T14:31:24.511Z,22.12
2023-03-24T14:33:52.911Z,22.07
2023-03-24T14:36:31.012Z,22.01
2023-03-24T14:39:13.804Z,21.97
2023-03-24T14:41:42.205Z,21.94
2023-03-24T14:44:11.573Z,21.93
2023-03-24T14:46:48.228Z,21.96
2023-03-24T14:49:24.824Z,22.00
2023-03-24T14:52:29.080Z,22.00
2023-03-24T14:55:06.054Z,21.94
2023-03-24T14:57:41.961Z,21.91
2023-03-24T15:00:32.420Z,21.86
2023-03-24T15:03:12.091Z,21.80
2023-03-24T15:05:40.627Z,21.72
2023-03-24T15:08:18.514Z,21.63
2023-03-24T15:10:47.537Z,21.54
2023-03-24T15:13:49.656Z,21.47
2023-03-24T15:16:21.132Z,21.41
2023-03-24T15:19:02.374Z,21.34
2023-03-24T15:21:34.995Z,21.30
2023-03-24T15:24:22.260Z,21.26
2023-03-24T15:26:53.462Z,21.23
2023-03-24T15:29:21.929Z,21.19
2023-03-24T15:31:50.277Z,21.14
2023-03-24T15:34:31.593Z,21.09
2023-03-24T15:37:05.524Z,21.04
2023-03-24T15:39:39.489Z,20.97
2023-03-24T15:42:09.675Z,20.92
2023-03-24T15:44:39.518Z,20.88
2023-03-24T15:47:16.707Z,20.83
2023-03-24T15:50:13.746Z,20.79
2023-03-24T15:52:41.866Z,20.75
2023-03-24T15:55:34.923Z,20.72
2023-03-24T15:58:24.226Z,20.67
2023-03-24T16:00:53.318Z,20.61
2023-03-24T16:03:26.615Z,20.56
2023-03-24T16:05:56.293Z,20.51
2023-03-24T16:08:35.861Z,20.48
2023-03-24T16:11:11.181Z,20.44
2023-03-24T16:13:47.684Z,20.41
2023-03-24T16:16:24.863Z,20.39
2023-03-24T16:18:53.760Z,20.36
2023-03-24T16:21:22.174Z,20.33
2023-03-24T16:23:53.709Z,20.30
2023-03-24T16:26:26.374Z,20.27
2023-03-24T16:29:14.416Z,20.23
2023-03-24T16:31:44.298Z,20.20
2023-03-24T16:34:12.387Z,20.17
2023-03-24T16:36:40.444Z,20.13
2023-03-24T16:39:15.955Z,20.11
2023-03-24T16:41:46.804Z,20.09
2023-03-24T16:44:17.505Z,20.05
2023-03-24T16:46:46.884Z,20.02
2023-03-24T16:49:17.137Z,20.00
2023-03-24T16:51:45.773Z,19.97
2023-03-24T16:54:15.115Z,19.96
2023-03-24T16:56:44.209Z,19.94
2023-03-24T16:59:15.050Z,19.91
2023-03-24T17:01:46.344Z,19.88
2023-03-24T17:04:20.111Z,19.86
2023-03-24T17:06:52.972Z,19.84
2023-03-24T17:09:23.080Z,19.82
2023-03-24T17:11:56.197Z,19.80
2023-03-24T17:14:24.850Z,19.79
2023-03-24T17:16:54.229Z,19.77
2023-03-24T17:22:38.473Z,19.76
2023-03-24T17:25:13.337Z,19.75
2023-03-24T17:27:41.745Z,19.74
2023-03-24T17:30:18.323Z,19.74
2023-03-24T17:32:48.065Z,19.72
2023-03-24T17:35:22.052Z,19.66
2023-03-24T17:37:51.394Z,19.62
2023-03-24T17:40:20.503Z,19.58
2023-03-24T17:42:52.116Z,19.56
2023-03-24T17:45:21.266Z,19.53
2023-03-24T17:47:55.558Z,19.49
2023-03-24T17:50:38.516Z,19.45
2023-03-24T17:53:10.597Z,19.41
2023-03-24T17:55:39.395Z,19.32
2023-03-24T17:58:08.922Z,19.25
2023-03-24T18:00:41.536Z,19.21
2023-03-24T18:03:11.399Z,19.17
2023-03-24T18:05:44.983Z,19.10
2023-03-24T18:08:13.162Z,19.05
2023-03-24T18:10:41.201Z,18.95
2023-03-24T18:13:15.443Z,18.86
2023-03-24T18:15:43.631Z,18.77
2023-03-24T18:18:18.253Z,18.70
2023-03-24T18:20:53.110Z,18.62
2023-03-24T18:23:23.646Z,18.55
2023-03-24T18:26:03.898Z,18.52
2023-03-24T18:28:38.952Z,18.53
2023-03-24T18:31:16.282Z,18.53
2023-03-24T18:33:46.245Z,18.52
2023-03-24T18:36:18.473Z,18.50
2023-03-24T18:38:47.891Z,18.49
2023-03-24T18:41:18.632Z,18.46
2023-03-24T18:43:48.315Z,18.36
2023-03-24T18:46:22.065Z,18.25
2023-03-24T18:48:53.219Z,18.14
2023-03-24T18:51:21.690Z,18.04
2023-03-24T18:53:50.296Z,17.96
2023-03-24T18:56:18.910Z,17.91
2023-03-24T18:58:48.720Z,17.88
2023-03-24T19:01:23.127Z,17.87
2023-03-24T19:03:52.400Z,17.85
2023-03-24T19:06:21.661Z,17.85
2023-03-24T19:08:51.112Z,17.81
2023-03-24T19:11:19.390Z,17.72
2023-03-24T19:13:50.670Z,17.62
2023-03-24T19:16:19.618Z,17.53
2023-03-24T19:18:48.730Z,17.44
2023-03-24T19:21:19.837Z,17.36
2023-03-24T19:23:49.948Z,17.34
2023-03-24T19:26:22.571Z,17.36
2023-03-24T19:28:53.319Z,17.39
2023-03-24T19:31:21.630Z,17.38
2023-03-24T19:33:51.706Z,17.35
2023-03-24T19:36:19.959Z,17.33
2023-03-24T19:38:48.008Z,17.27
2023-03-24T19:41:16.366Z,17.18
2023-03-24T19:43:47.616Z,17.09
2023-03-24T19:46:22.049Z,17.00
2023-03-24T19:48:50.767Z,16.93
2023-03-24T19:51:32.817Z,16.86
2023-03-24T19:54:01.177Z,16.81
2023-03-24T19:56:29.640Z,16.77
2023-03-24T19:58:57.933Z,16.74
2023-03-24T20:01:26.434Z,16.74
2023-03-24T20:03:54.700Z,16.78
2023-03-24T20:06:23.295Z,16.81
2023-03-24T20:08:51.822Z,16.79
2023-03-24T20:11:19.985Z,16.75
2023-03-24T20:13:48.395Z,16.68
2023-03-24T20:16:17.802Z,16.62
2023-03-24T20:18:45.987Z,16.56
2023-03-24T20:21:19.032Z,16.51
2023-03-24T20:23:47.458Z,16.45
2023-03-24T20:26:21.929Z,16.39
2023-03-24T20:28:51.347Z,16.36
2023-03-24T20:31:19.720Z,16.33
2023-03-24T20:33:49.208Z,16.29
2023-03-24T20:36:17.511Z,16.27
2023-03-24T20:38:45.899Z,16.25
2023-03-24T20:41:14.058Z,16.22
2023-03-24T20:43:42.680Z,16.18
2023-03-24T20:46:17.347Z,16.14
2023-03-24T20:48:46.312Z,16.11
2023-03-24T20:51:14.751Z,16.13
2023-03-24T20:53:44.955Z,16.18
2023-03-24T20:56:15.212Z,16.20
2023-03-24T20:58:48.023Z,16.20
2023-03-24T21:01:24.069Z,16.19
2023-03-24T21:03:52.885Z,16.18
2023-03-24T21:06:21.191Z,16.20
2023-03-24T21:08:49.480Z,16.22
2023-03-24T21:11:20.852Z,16.23
2023-03-24T21:13:49.278Z,16.23
2023-03-24T21:16:19.741Z,16.23
2023-03-24T21:18:51.416Z,16.21
2023-03-24T21:21:20.587Z,16.20
2023-03-24T21:23:48.769Z,16.20
2023-03-24T21:26:18.303Z,16.20
2023-03-24T21:28:47.192Z,16.21
2023-03-24T21:31:24.168Z,16.23
2023-03-24T21:33:52.903Z,16.24
2023-03-24T21:36:21.412Z,16.24
2023-03-24T21:38:50.060Z,16.25
2023-03-24T21:41:18.808Z,16.25
2023-03-24T21:43:51.233Z,16.26
2023-03-24T21:46:26.458Z,16.27
2023-03-24T21:48:59.596Z,16.27
2023-03-24T21:51:37.009Z,16.26
2023-03-24T21:54:15.176Z,16.27
2023-03-24T21:56:44.139Z,16.28
2023-03-24T21:59:12.952Z,16.28
2023-03-24T22:01:42.892Z,16.28
2023-03-24T22:04:11.243Z,16.29
2023-03-24T22:06:40.144Z,16.30
2023-03-24T22:09:10.466Z,16.31
2023-03-24T22:11:43.018Z,16.31
2023-03-24T22:14:18.986Z,16.31
2023-03-24T22:16:47.438Z,16.29
2023-03-24T22:19:15.776Z,16.24
2023-03-24T22:21:44.067Z,16.20
2023-03-24T22:24:12.591Z,16.19
2023-03-24T22:26:40.671Z,16.17
2023-03-24T22:29:12.987Z,16.15
2023-03-24T22:31:43.637Z,16.11
2023-03-24T22:34:14.001Z,16.09
2023-03-24T22:36:43.475Z,16.08
2023-03-24T22:39:11.816Z,16.07
2023-03-24T22:41:44.038Z,16.07
2023-03-24T22:44:12.403Z,16.07
2023-03-24T22:46:40.731Z,16.06
2023-03-24T22:49:09.637Z,16.04
2023-03-24T22:51:37.822Z,16.01
2023-03-24T22:54:06.640Z,16.00
2023-03-24T22:56:35.449Z,16.00
2023-03-24T23:11:12.440Z,16.11
2023-03-24T23:14:06.301Z,16.45
2023-03-24T23:16:35.848Z,16.41
2023-03-24T23:19:09.728Z,16.35
2023-03-24T23:21:39.570Z,16.29
2023-03-24T23:24:08.006Z,16.24
2023-03-24T23:26:36.914Z,16.20
2023-03-24T23:29:06.112Z,16.17
2023-03-24T23:31:36.018Z,16.13
2023-03-24T23:34:07.701Z,16.09
2023-03-24T23:36:36.064Z,16.05
2023-03-24T23:39:05.925Z,16.02
2023-03-24T23:41:36.116Z,16.01
2023-03-24T23:44:04.383Z,15.98
2023-03-24T23:46:33.803Z,15.95
2023-03-24T23:49:02.063Z,15.94
2023-03-24T23:51:31.556Z,15.91
2023-03-24T23:53:59.852Z,15.89
2023-03-24T23:56:36.826Z,15.87
2023-03-24T23:59:06.247Z,15.85
